aviador You're here:

LFRJ Decoded Metar

LANDIVISIAU in FRANCE
Report Time2018-07-18 20:00:00
UTC Time2018-07-18 20:09:02
Flight Rules vfr VFR
Wind360° at 04 kt
W.Decomp.*RWY 08: 0.8 kt HW 3.9 kt LCW
Visibility9999 m
Phenomena:N/A
Clouds:N/A
Expected CloudBase > 1,200 ft AGL from Temp-Dew spread
CeilingNone
Temp15°C (ISA +1)
Dew Point12°C (82% RH)
AAT14.2°C
QNH1019 hPa
Density Alt453 ft
Elevation377 ft
Report Wrong Elevation
Raw Report
METAR LFRJ 182000Z AUTO 36004KT CAVOK 15/12 Q1019=

Extra information for LFRJ:More info

Metar Taf Metar & Taf Last 4 Metars F.Rules Stats Wind Profile Meteogram Temp Stats Airport Information Weather charts Add Link Nearby VenuesMetar ALERT Operation Metar Decoded Social comments